createdAt,value
2022-11-16T00:01:02.598Z,28.43
2022-11-16T00:03:33.331Z,31.30
2022-11-16T00:06:04.230Z,28.80
2022-11-16T00:08:34.531Z,28.40
2022-11-16T00:11:08.094Z,27.00
2022-11-16T00:13:37.812Z,27.53
2022-11-16T00:16:07.561Z,24.73
2022-11-16T00:18:37.555Z,26.00
2022-11-16T00:21:07.099Z,24.77
2022-11-16T00:23:38.579Z,27.70
2022-11-16T00:26:08.578Z,28.53
2022-11-16T00:28:38.153Z,26.00
2022-11-16T00:31:08.567Z,25.17
2022-11-16T00:33:40.190Z,27.50
2022-11-16T00:36:12.406Z,22.93
2022-11-16T00:38:41.851Z,24.37
2022-11-16T00:41:11.150Z,24.07
2022-11-16T00:43:40.189Z,25.10
2022-11-16T00:46:10.467Z,23.30
2022-11-16T00:48:40.800Z,26.33
2022-11-16T00:51:09.861Z,24.43
2022-11-16T00:53:38.961Z,26.00
2022-11-16T00:56:08.757Z,24.30
2022-11-16T00:58:43.739Z,21.47
2022-11-16T01:01:13.775Z,26.70
2022-11-16T01:03:43.822Z,21.83
2022-11-16T01:06:15.048Z,23.40
2022-11-16T01:08:44.861Z,24.07
2022-11-16T01:11:33.126Z,23.70
2022-11-16T01:14:03.689Z,19.93
2022-11-16T01:16:32.688Z,22.73
2022-11-16T01:19:03.953Z,22.20
2022-11-16T01:21:32.934Z,19.40
2022-11-16T01:24:02.179Z,19.90
2022-11-16T01:26:31.411Z,22.63
2022-11-16T01:29:00.761Z,17.53
2022-11-16T01:31:33.618Z,22.53
2022-11-16T01:34:06.463Z,21.60
2022-11-16T01:36:36.716Z,24.10
2022-11-16T01:39:06.425Z,23.50
2022-11-16T01:42:08.261Z,22.63
2022-11-16T01:45:06.632Z,24.00
2022-11-16T01:47:36.376Z,23.53
2022-11-16T01:50:11.350Z,20.53
2022-11-16T01:52:47.986Z,22.07
2022-11-16T01:55:17.798Z,20.27
2022-11-16T01:57:59.901Z,22.13
2022-11-16T02:00:30.658Z,22.93
2022-11-16T02:03:20.223Z,20.67
2022-11-16T02:06:04.829Z,21.93
2022-11-16T02:09:00.577Z,25.17
2022-11-16T02:11:40.792Z,21.90
2022-11-16T02:14:20.795Z,23.87
2022-11-16T02:16:57.368Z,25.07
2022-11-16T02:19:57.317Z,24.37
2022-11-16T02:22:40.391Z,27.90
2022-11-16T02:25:14.036Z,25.50
2022-11-16T02:28:03.559Z,26.87
2022-11-16T02:30:33.731Z,25.20
2022-11-16T02:33:05.221Z,29.10
2022-11-16T02:35:40.035Z,31.97
2022-11-16T02:38:12.930Z,30.47
2022-11-16T02:40:44.615Z,32.03
2022-11-16T02:43:21.218Z,31.80
2022-11-16T02:45:52.771Z,34.97
2022-11-16T02:48:24.046Z,37.53
2022-11-16T02:50:54.551Z,37.37
2022-11-16T02:53:25.327Z,40.47
2022-11-16T02:55:57.770Z,42.13
2022-11-16T02:58:27.510Z,40.90
2022-11-16T03:01:01.764Z,44.03
2022-11-16T03:03:33.883Z,46.03
2022-11-16T03:06:06.506Z,42.27
2022-11-16T03:08:37.432Z,39.33
2022-11-16T03:11:26.707Z,53.10
2022-11-16T03:13:59.266Z,49.47
2022-11-16T03:16:33.360Z,48.17
2022-11-16T03:19:04.647Z,53.50
2022-11-16T03:21:38.266Z,48.87
2022-11-16T03:24:09.125Z,52.33
2022-11-16T03:26:45.638Z,60.77
2022-11-16T03:29:18.770Z,55.93
2022-11-16T03:31:51.754Z,59.43
2022-11-16T03:34:24.660Z,56.80
2022-11-16T03:36:54.748Z,66.63
2022-11-16T03:39:27.435Z,52.73
2022-11-16T03:41:56.987Z,52.13
2022-11-16T03:44:25.930Z,51.90
2022-11-16T03:46:56.328Z,54.00
2022-11-16T03:49:26.060Z,53.77
2022-11-16T03:51:56.392Z,57.73
2022-11-16T03:54:24.972Z,49.40
2022-11-16T03:56:53.776Z,49.23
2022-11-16T03:59:23.482Z,50.17
2022-11-16T04:01:52.671Z,47.37
2022-11-16T04:04:40.616Z,56.67
2022-11-16T04:07:28.741Z,57.57
2022-11-16T04:10:15.448Z,54.80
2022-11-16T04:13:03.404Z,53.57
2022-11-16T04:15:49.712Z,56.33
2022-11-16T04:18:36.175Z,50.23
2022-11-16T04:21:27.167Z,50.07
2022-11-16T04:24:14.126Z,52.93
2022-11-16T04:27:04.352Z,51.90
2022-11-16T04:29:33.889Z,47.70
2022-11-16T04:32:20.157Z,48.67
2022-11-16T04:35:06.746Z,51.97
2022-11-16T04:37:50.399Z,44.60
2022-11-16T04:40:26.556Z,43.30
2022-11-16T04:42:55.337Z,44.90
2022-11-16T04:45:43.724Z,46.33
2022-11-16T04:48:15.085Z,38.87
2022-11-16T04:50:44.591Z,42.03
2022-11-16T04:53:15.188Z,36.13
2022-11-16T04:55:55.473Z,39.73
2022-11-16T04:58:28.781Z,37.77
2022-11-16T05:00:57.947Z,40.77
2022-11-16T05:03:26.685Z,35.43
2022-11-16T05:05:55.740Z,31.47
2022-11-16T05:08:26.980Z,32.00
2022-11-16T05:10:56.976Z,27.50
2022-11-16T05:13:26.007Z,32.93
2022-11-16T05:15:55.146Z,31.17
2022-11-16T05:18:24.384Z,30.03
2022-11-16T05:21:01.672Z,26.87
2022-11-16T05:23:56.603Z,27.13
2022-11-16T05:26:28.315Z,27.37
2022-11-16T05:28:57.447Z,29.03
2022-11-16T05:31:26.243Z,27.30
2022-11-16T05:33:55.297Z,27.53
2022-11-16T05:36:24.334Z,26.50
2022-11-16T05:38:56.387Z,26.93
2022-11-16T05:41:29.303Z,25.60
2022-11-16T05:44:00.417Z,29.40
2022-11-16T05:46:29.314Z,26.10
2022-11-16T05:49:00.988Z,26.13
2022-11-16T05:51:29.821Z,28.30
2022-11-16T05:54:02.042Z,26.17
2022-11-16T05:56:31.333Z,24.70
2022-11-16T05:59:00.671Z,26.43
2022-11-16T06:01:29.591Z,24.53
2022-11-16T06:04:01.436Z,24.87
2022-11-16T06:06:31.326Z,21.07
2022-11-16T06:09:01.783Z,21.93
2022-11-16T06:11:35.953Z,24.23
2022-11-16T06:14:05.514Z,19.60
2022-11-16T06:16:35.593Z,21.83
2022-11-16T06:19:08.353Z,21.27
2022-11-16T06:21:38.092Z,20.47
2022-11-16T06:24:12.746Z,19.30
2022-11-16T06:26:41.654Z,21.20
2022-11-16T06:29:10.483Z,19.60
2022-11-16T06:31:39.297Z,19.97
2022-11-16T06:34:09.076Z,18.70
2022-11-16T06:36:37.911Z,16.73
2022-11-16T06:39:06.806Z,18.87
2022-11-16T06:41:41.595Z,18.43
2022-11-16T06:44:13.219Z,16.63
2022-11-16T06:46:51.375Z,17.60
2022-11-16T06:49:20.948Z,18.70
2022-11-16T06:51:51.686Z,17.10
2022-11-16T06:54:21.093Z,14.10
2022-11-16T06:56:51.894Z,17.17
2022-11-16T06:59:20.952Z,17.87
2022-11-16T07:01:49.856Z,15.30
2022-11-16T07:04:19.195Z,16.87
2022-11-16T07:06:54.353Z,15.50
2022-11-16T07:09:23.501Z,19.53
2022-11-16T07:11:53.626Z,17.33
2022-11-16T07:14:23.232Z,14.90
2022-11-16T07:16:56.417Z,16.10
2022-11-16T07:19:28.386Z,13.00
2022-11-16T07:21:57.547Z,14.47
2022-11-16T07:24:26.388Z,12.87
2022-11-16T07:26:56.526Z,15.30
2022-11-16T07:29:27.782Z,12.57
2022-11-16T07:32:14.905Z,11.70
2022-11-16T07:35:00.758Z,11.77
2022-11-16T07:37:30.401Z,14.30
2022-11-16T07:39:59.616Z,10.20
2022-11-16T07:42:29.832Z,14.23
2022-11-16T07:45:22.415Z,11.97
2022-11-16T07:47:59.549Z,11.80
2022-11-16T07:51:02.314Z,10.63
2022-11-16T07:53:32.834Z,10.30
2022-11-16T07:56:02.077Z,13.37
2022-11-16T07:58:35.884Z,11.50
2022-11-16T08:01:06.605Z,11.20
2022-11-16T08:03:37.624Z,11.07
2022-11-16T08:06:09.496Z,9.43
2022-11-16T08:08:38.566Z,11.37
2022-11-16T08:11:08.793Z,13.47
2022-11-16T08:13:40.829Z,9.50
2022-11-16T08:16:13.036Z,10.63
2022-11-16T08:18:43.054Z,8.90
2022-11-16T08:21:14.096Z,10.73
2022-11-16T08:23:44.994Z,10.40
2022-11-16T08:26:16.567Z,9.93
2022-11-16T08:28:53.998Z,9.10
2022-11-16T08:31:29.237Z,8.23
2022-11-16T08:34:20.384Z,8.70
2022-11-16T08:36:53.096Z,8.00
2022-11-16T08:39:27.749Z,7.97
2022-11-16T08:41:56.653Z,7.90
2022-11-16T08:44:27.029Z,7.37
2022-11-16T08:46:59.122Z,9.27
2022-11-16T08:49:35.732Z,9.67
2022-11-16T08:52:04.841Z,7.83
2022-11-16T08:54:34.504Z,8.77
2022-11-16T08:57:03.025Z,6.73
2022-11-16T08:59:35.742Z,6.00
2022-11-16T09:02:11.501Z,7.83
2022-11-16T09:04:40.262Z,7.50
2022-11-16T09:07:09.192Z,6.60
2022-11-16T09:09:38.160Z,6.83
2022-11-16T09:12:07.313Z,8.97
2022-11-16T09:14:37.289Z,7.87
2022-11-16T09:17:06.480Z,15.27
2022-11-16T09:19:35.317Z,7.50
2022-11-16T09:22:03.904Z,9.93
2022-11-16T09:24:32.655Z,7.00
2022-11-16T09:27:02.496Z,6.40
2022-11-16T09:29:31.394Z,6.27
2022-11-16T09:32:02.324Z,5.63
2022-11-16T09:34:30.882Z,7.93
2022-11-16T09:36:59.600Z,6.50
2022-11-16T09:39:32.455Z,5.37
2022-11-16T09:42:14.888Z,4.40
2022-11-16T09:44:58.795Z,6.57
2022-11-16T09:47:46.472Z,6.30
2022-11-16T09:50:35.780Z,9.73
2022-11-16T09:53:15.670Z,5.30
2022-11-16T09:55:48.653Z,5.93
2022-11-16T09:58:22.055Z,5.60
2022-11-16T10:00:54.650Z,5.33
2022-11-16T10:03:26.637Z,6.20
2022-11-16T10:06:02.897Z,3.47
2022-11-16T10:08:43.512Z,4.63
2022-11-16T10:11:29.399Z,4.63
2022-11-16T10:14:05.558Z,4.93
2022-11-16T10:16:38.995Z,4.60
2022-11-16T10:19:14.932Z,5.53
2022-11-16T10:21:52.160Z,5.70
2022-11-16T10:24:27.140Z,6.03
2022-11-16T10:27:05.451Z,5.20
2022-11-16T10:29:42.255Z,3.40
2022-11-16T10:32:18.223Z,5.93
2022-11-16T10:34:52.545Z,5.20
2022-11-16T10:37:22.208Z,6.20
2022-11-16T10:39:53.266Z,4.60
2022-11-16T10:42:26.743Z,5.60
2022-11-16T10:45:00.182Z,4.23
2022-11-16T10:47:35.155Z,4.67
2022-11-16T10:50:10.553Z,4.97
2022-11-16T10:52:39.427Z,7.97
2022-11-16T10:55:09.044Z,6.27
2022-11-16T10:57:56.767Z,6.50
2022-11-16T11:00:43.925Z,7.67
2022-11-16T11:03:12.806Z,6.43
2022-11-16T11:05:53.607Z,7.30
2022-11-16T11:08:31.829Z,6.63
2022-11-16T11:11:22.908Z,8.27
2022-11-16T11:14:06.156Z,9.77
2022-11-16T11:16:34.460Z,9.53
2022-11-16T11:19:20.289Z,8.10
2022-11-16T11:21:50.562Z,8.73
2022-11-16T11:27:08.643Z,9.20
2022-11-16T11:29:38.958Z,9.50
2022-11-16T11:32:09.879Z,12.13
2022-11-16T11:34:42.258Z,10.97
2022-11-16T11:37:17.412Z,10.37
2022-11-16T11:39:46.595Z,11.13
2022-11-16T11:42:24.241Z,11.77
2022-11-16T11:44:57.471Z,12.80
2022-11-16T11:47:59.093Z,10.77
2022-11-16T11:50:38.487Z,10.63
2022-11-16T11:53:12.049Z,10.13
2022-11-16T11:55:41.152Z,10.50
2022-11-16T11:58:16.699Z,11.33
2022-11-16T12:00:53.086Z,8.73
2022-11-16T12:03:39.999Z,9.80
2022-11-16T12:06:12.650Z,10.30
2022-11-16T12:08:58.383Z,10.87
2022-11-16T12:11:33.900Z,11.03
2022-11-16T12:14:11.547Z,10.13
2022-11-16T12:16:46.588Z,9.70
2022-11-16T12:19:46.613Z,10.60
2022-11-16T12:22:29.120Z,10.00
2022-11-16T12:25:11.456Z,11.07
2022-11-16T12:27:44.410Z,10.87
2022-11-16T12:30:16.287Z,8.30
2022-11-16T12:32:54.640Z,14.67
2022-11-16T12:35:49.939Z,9.57
2022-11-16T12:38:37.340Z,8.53
2022-11-16T12:41:25.536Z,7.97
2022-11-16T12:43:59.767Z,7.67
2022-11-16T12:46:35.974Z,8.57
2022-11-16T12:49:24.965Z,9.57
2022-11-16T12:52:02.999Z,12.00
2022-11-16T12:57:59.414Z,8.93
2022-11-16T13:00:28.385Z,8.10
2022-11-16T13:03:02.871Z,10.80
2022-11-16T13:05:41.801Z,7.10
2022-11-16T13:08:14.951Z,7.97
2022-11-16T13:10:46.601Z,8.87
2022-11-16T13:13:39.839Z,7.20
2022-11-16T13:16:08.778Z,19.97
2022-11-16T13:18:41.487Z,8.83
2022-11-16T13:21:17.895Z,7.43
2022-11-16T13:23:53.109Z,10.23
2022-11-16T13:26:24.336Z,9.40
2022-11-16T13:28:59.797Z,13.80
2022-11-16T13:31:33.079Z,7.37
2022-11-16T13:34:03.809Z,9.17
2022-11-16T13:36:45.429Z,7.27
2022-11-16T13:39:21.843Z,8.43
2022-11-16T13:41:52.150Z,7.87
2022-11-16T13:44:30.535Z,6.83
2022-11-16T13:47:04.583Z,9.93
2022-11-16T13:49:35.894Z,4.53
2022-11-16T13:52:22.739Z,6.53
2022-11-16T13:54:54.953Z,4.20
2022-11-16T13:57:26.511Z,6.40
2022-11-16T14:00:11.214Z,8.60
2022-11-16T14:02:41.688Z,8.70
2022-11-16T14:05:17.631Z,8.00
2022-11-16T14:07:49.880Z,9.93
2022-11-16T14:10:56.282Z,5.13
2022-11-16T14:13:42.385Z,5.60
2022-11-16T14:16:45.477Z,6.77
2022-11-16T14:19:53.043Z,5.13
2022-11-16T14:22:44.642Z,4.10
2022-11-16T14:25:25.990Z,4.30
2022-11-16T14:28:00.824Z,3.50
2022-11-16T14:30:33.783Z,4.57
2022-11-16T14:33:04.149Z,4.60
2022-11-16T14:35:36.884Z,3.90
2022-11-16T14:38:08.095Z,7.20
2022-11-16T14:40:45.097Z,4.83
2022-11-16T14:43:18.860Z,5.93
2022-11-16T14:45:49.688Z,4.80
2022-11-16T14:48:21.587Z,6.70
2022-11-16T14:51:02.211Z,6.50
2022-11-16T14:53:31.200Z,5.50
2022-11-16T14:56:12.165Z,6.00
2022-11-16T14:58:41.460Z,5.77
2022-11-16T15:01:15.730Z,5.20
2022-11-16T15:03:58.580Z,6.00
2022-11-16T15:06:28.105Z,4.70
2022-11-16T15:09:00.474Z,7.10
2022-11-16T15:11:45.032Z,6.07
2022-11-16T15:14:18.965Z,7.03
2022-11-16T15:16:52.428Z,6.67
2022-11-16T15:19:23.432Z,7.10
2022-11-16T15:21:53.644Z,11.27
2022-11-16T15:24:31.344Z,8.30
2022-11-16T15:27:10.682Z,6.40
2022-11-16T15:29:39.552Z,7.10
2022-11-16T15:32:14.478Z,6.57
2022-11-16T15:34:47.633Z,6.07
2022-11-16T15:37:20.687Z,6.93
2022-11-16T15:39:49.487Z,6.70
2022-11-16T15:42:18.180Z,6.23
2022-11-16T15:44:47.480Z,5.50
2022-11-16T15:47:16.386Z,7.90
2022-11-16T15:49:49.833Z,6.60
2022-11-16T15:52:42.652Z,8.50
2022-11-16T15:55:40.243Z,6.50
2022-11-16T15:58:15.653Z,6.57
2022-11-16T16:00:49.214Z,8.30
2022-11-16T16:03:28.096Z,7.53
2022-11-16T16:05:58.206Z,7.43
2022-11-16T16:08:32.614Z,8.07
2022-11-16T16:11:10.136Z,6.13
2022-11-16T16:13:41.624Z,6.47
2022-11-16T16:16:31.842Z,8.17
2022-11-16T16:19:08.337Z,6.50
2022-11-16T16:21:45.874Z,7.77
2022-11-16T16:24:36.409Z,5.90
2022-11-16T16:27:18.102Z,6.30
2022-11-16T16:29:47.973Z,7.50
2022-11-16T16:32:25.719Z,5.20
2022-11-16T16:34:57.571Z,4.90
2022-11-16T16:37:30.029Z,5.10
2022-11-16T16:39:58.964Z,6.27
2022-11-16T16:42:27.872Z,5.80
2022-11-16T16:44:56.316Z,6.10
2022-11-16T16:47:25.139Z,4.03
2022-11-16T16:49:54.652Z,3.63
2022-11-16T16:52:23.807Z,7.17
2022-11-16T16:54:53.719Z,3.70
2022-11-16T16:57:22.388Z,3.00
2022-11-16T16:59:51.123Z,3.57
2022-11-16T17:02:20.594Z,4.00
2022-11-16T17:04:49.191Z,4.50
2022-11-16T17:07:18.173Z,3.67
2022-11-16T17:09:47.124Z,4.47
2022-11-16T17:12:17.123Z,2.43
2022-11-16T17:14:51.784Z,1.97
2022-11-16T17:17:20.954Z,2.27
2022-11-16T17:19:49.750Z,2.20
2022-11-16T17:22:19.043Z,1.70
2022-11-16T17:24:47.901Z,2.43
2022-11-16T17:27:18.806Z,1.90
2022-11-16T17:29:47.577Z,2.33
2022-11-16T17:32:16.281Z,2.07
2022-11-16T17:34:45.511Z,2.07
2022-11-16T17:37:14.932Z,2.97
2022-11-16T17:39:43.864Z,2.27
2022-11-16T17:42:12.624Z,2.33
2022-11-16T17:44:43.281Z,2.13
2022-11-16T17:47:11.919Z,2.67
2022-11-16T17:49:40.609Z,2.80
2022-11-16T17:52:10.452Z,2.43
2022-11-16T17:54:39.260Z,2.20
2022-11-16T17:57:08.543Z,2.37
2022-11-16T17:59:37.116Z,3.20
2022-11-16T18:02:07.342Z,1.90
2022-11-16T18:04:35.978Z,1.80
2022-11-16T18:07:04.866Z,2.80
2022-11-16T18:09:33.558Z,1.87
2022-11-16T18:12:02.229Z,2.10
2022-11-16T18:14:32.033Z,5.97
2022-11-16T18:17:01.168Z,3.73
2022-11-16T18:19:31.444Z,1.50
2022-11-16T18:22:00.711Z,1.53
2022-11-16T18:24:29.606Z,2.27
2022-11-16T18:26:58.688Z,1.63
2022-11-16T18:29:27.877Z,2.13
2022-11-16T18:31:57.183Z,1.83
2022-11-16T18:34:26.954Z,1.30
2022-11-16T18:36:57.742Z,1.20
2022-11-16T18:39:27.159Z,1.63
2022-11-16T18:41:56.397Z,1.73
2022-11-16T18:44:25.373Z,1.97
2022-11-16T18:46:54.312Z,3.47
2022-11-16T18:49:23.555Z,1.17
2022-11-16T18:51:52.816Z,1.37
2022-11-16T18:54:23.045Z,1.47
2022-11-16T18:56:51.978Z,1.70
2022-11-16T18:59:20.996Z,1.83
2022-11-16T19:01:50.239Z,1.73
2022-11-16T19:04:19.169Z,2.47
2022-11-16T19:06:48.583Z,1.53
2022-11-16T19:09:18.446Z,2.07
2022-11-16T19:11:50.916Z,1.23
2022-11-16T19:14:20.425Z,1.37
2022-11-16T19:16:55.685Z,1.47
2022-11-16T19:19:28.078Z,1.03
2022-11-16T19:21:57.734Z,1.87
2022-11-16T19:24:26.754Z,1.70
2022-11-16T19:26:57.510Z,1.90
2022-11-16T19:29:27.152Z,1.50
2022-11-16T19:31:56.788Z,1.63
2022-11-16T19:34:31.992Z,2.43
2022-11-16T19:37:02.715Z,1.60
2022-11-16T19:39:31.849Z,1.50
2022-11-16T19:42:02.776Z,1.50
2022-11-16T19:44:32.100Z,4.57
2022-11-16T19:47:01.439Z,2.03
2022-11-16T19:49:30.615Z,1.77
2022-11-16T19:52:00.603Z,2.50
2022-11-16T19:54:30.874Z,1.80
2022-11-16T19:57:02.015Z,1.87
2022-11-16T19:59:31.169Z,2.73
2022-11-16T20:02:00.408Z,1.90
2022-11-16T20:04:33.678Z,3.90
2022-11-16T20:07:03.209Z,1.63
2022-11-16T20:09:33.763Z,1.93
2022-11-16T20:12:05.361Z,2.10
2022-11-16T20:14:34.797Z,2.93
2022-11-16T20:17:05.226Z,2.53
2022-11-16T20:19:34.108Z,1.90
2022-11-16T20:22:03.179Z,1.83
2022-11-16T20:24:33.043Z,2.63
2022-11-16T20:27:03.604Z,1.90
2022-11-16T20:29:32.521Z,2.53
2022-11-16T20:32:01.256Z,1.87
2022-11-16T20:34:30.906Z,2.40
2022-11-16T20:37:00.752Z,2.50
2022-11-16T20:39:29.571Z,1.93
2022-11-16T20:41:58.897Z,1.97
2022-11-16T20:44:31.576Z,2.33
2022-11-16T20:47:01.984Z,3.87
2022-11-16T20:49:30.833Z,1.87
2022-11-16T20:51:59.715Z,2.10
2022-11-16T20:54:29.134Z,2.20
2022-11-16T20:56:58.157Z,2.83
2022-11-16T20:59:28.427Z,2.10
2022-11-16T21:01:57.243Z,2.40
2022-11-16T21:04:27.620Z,1.80
2022-11-16T21:06:56.598Z,2.17
2022-11-16T21:09:25.862Z,2.30
2022-11-16T21:12:12.672Z,2.57
2022-11-16T21:14:43.056Z,2.23
2022-11-16T21:17:12.298Z,2.17
2022-11-16T21:19:54.292Z,1.83
2022-11-16T21:22:32.384Z,2.40
2022-11-16T21:25:02.386Z,2.70
2022-11-16T21:27:31.821Z,2.60
2022-11-16T21:30:02.112Z,2.50
2022-11-16T21:32:30.965Z,2.70
2022-11-16T21:35:00.323Z,3.87
2022-11-16T21:37:29.359Z,2.50
2022-11-16T21:39:58.976Z,2.50
2022-11-16T21:42:28.470Z,2.50
2022-11-16T21:44:57.834Z,2.30
2022-11-16T21:47:29.554Z,2.23
2022-11-16T21:50:29.950Z,2.73
2022-11-16T21:52:48.308Z,4.13
2022-11-16T21:55:17.851Z,2.70
2022-11-16T21:57:47.080Z,2.63
2022-11-16T22:00:17.028Z,2.60
2022-11-16T22:02:48.396Z,2.60
2022-11-16T22:05:35.371Z,2.17
2022-11-16T22:08:06.908Z,2.90
2022-11-16T22:10:36.433Z,3.73
2022-11-16T22:13:06.067Z,2.60
2022-11-16T22:15:35.289Z,3.00
2022-11-16T22:18:06.943Z,2.77
2022-11-16T22:20:36.397Z,3.13
2022-11-16T22:23:05.472Z,2.47
2022-11-16T22:25:34.824Z,2.73
2022-11-16T22:28:21.249Z,3.03
2022-11-16T22:30:52.213Z,3.20
2022-11-16T22:33:22.545Z,3.27
2022-11-16T22:35:51.683Z,4.30
2022-11-16T22:38:21.382Z,3.03
2022-11-16T22:40:52.746Z,3.67
2022-11-16T22:43:22.167Z,3.30
2022-11-16T22:45:51.424Z,4.03
2022-11-16T22:48:22.009Z,3.80
2022-11-16T22:50:51.277Z,3.60
2022-11-16T22:53:20.374Z,3.30
2022-11-16T22:55:49.559Z,3.27
2022-11-16T22:58:18.818Z,3.70
2022-11-16T23:00:47.632Z,4.37
2022-11-16T23:03:17.106Z,3.70
2022-11-16T23:05:47.497Z,3.53
2022-11-16T23:08:16.831Z,3.70
2022-11-16T23:10:59.708Z,3.90
2022-11-16T23:13:45.979Z,3.80
2022-11-16T23:16:15.488Z,4.43
2022-11-16T23:18:45.014Z,3.77
2022-11-16T23:21:32.425Z,3.73
2022-11-16T23:24:21.502Z,3.03
2022-11-16T23:27:07.918Z,3.83
2022-11-16T23:29:37.304Z,4.37
2022-11-16T23:32:07.086Z,3.80
2022-11-16T23:34:36.091Z,3.87
2022-11-16T23:37:07.350Z,3.50
2022-11-16T23:39:37.087Z,3.97
2022-11-16T23:42:24.251Z,3.17
2022-11-16T23:44:53.764Z,3.83
2022-11-16T23:47:23.693Z,3.30
2022-11-16T23:49:53.131Z,3.37
2022-11-16T23:52:23.769Z,3.20
2022-11-16T23:54:52.842Z,3.67
2022-11-16T23:57:21.656Z,4.37
2022-11-16T23:59:51.052Z,3.17
